createdAt,value
2019-03-01T00:01:31.317Z,99504.13
2019-03-01T00:04:12.053Z,99504.84
2019-03-01T00:06:58.066Z,99511.77
2019-03-01T00:09:40.460Z,99517.81
2019-03-01T00:12:43.755Z,99509.38
2019-03-01T00:15:28.878Z,99509.55
2019-03-01T00:18:05.577Z,99515.44
2019-03-01T00:20:50.735Z,99517.77
2019-03-01T00:23:56.891Z,99522.66
2019-03-01T00:27:14.912Z,99528.50
2019-03-01T00:30:15.566Z,99528.50
2019-03-01T00:33:03.570Z,99525.94
2019-03-01T00:36:21.072Z,99526.66
2019-03-01T00:39:09.599Z,99525.53
2019-03-01T00:41:49.066Z,99526.88
2019-03-01T00:44:36.174Z,99529.18
2019-03-01T00:47:10.221Z,99531.51
2019-03-01T00:49:44.151Z,99533.69
2019-03-01T00:52:18.246Z,99530.81
2019-03-01T00:54:52.240Z,99531.91
2019-03-01T00:57:27.621Z,99523.52
2019-03-01T01:00:01.598Z,99530.06
2019-03-01T01:02:37.118Z,99528.80
2019-03-01T01:05:11.319Z,99528.80
2019-03-01T01:07:45.309Z,99525.06
2019-03-01T01:10:21.538Z,99529.08
2019-03-01T01:12:56.942Z,99530.81
2019-03-01T01:15:30.895Z,99530.80
2019-03-01T01:18:04.970Z,99525.73
2019-03-01T01:20:38.844Z,99530.95
2019-03-01T01:23:12.805Z,99535.87
2019-03-01T01:25:48.894Z,99533.57
2019-03-01T01:28:24.277Z,99536.43
2019-03-01T01:30:58.249Z,99535.14
2019-03-01T01:33:36.766Z,99538.25
2019-03-01T01:36:10.804Z,99533.52
2019-03-01T01:38:44.823Z,99525.59
2019-03-01T01:41:20.256Z,99525.23
2019-03-01T01:43:54.138Z,99525.77
2019-03-01T01:46:28.089Z,99520.67
2019-03-01T01:49:03.528Z,99516.25
2019-03-01T01:51:39.018Z,99518.59
2019-03-01T01:54:12.922Z,99519.94
2019-03-01T01:56:47.647Z,99513.81
2019-03-01T01:59:21.605Z,99521.30
2019-03-01T02:01:57.247Z,99515.73
2019-03-01T02:04:31.185Z,99519.64
2019-03-01T02:07:05.826Z,99518.34
2019-03-01T02:09:40.309Z,99511.55
2019-03-01T02:12:15.804Z,99510.18
2019-03-01T02:14:49.930Z,99517.41
2019-03-01T02:17:24.072Z,99507.45
2019-03-01T02:20:02.327Z,99508.04
2019-03-01T02:22:38.381Z,99512.95
2019-03-01T02:25:14.927Z,99510.42
2019-03-01T02:27:50.254Z,99512.50
2019-03-01T02:30:37.898Z,99499.58
2019-03-01T02:33:13.483Z,99511.05
2019-03-01T02:35:51.232Z,99509.63
2019-03-01T02:38:25.228Z,99504.98
2019-03-01T02:41:00.665Z,99508.04
2019-03-01T02:43:36.416Z,99513.97
2019-03-01T02:46:10.358Z,99514.86
2019-03-01T02:48:44.507Z,99502.20
2019-03-01T02:51:18.516Z,99508.86
2019-03-01T02:53:53.976Z,99500.41
2019-03-01T02:56:27.986Z,99493.80
2019-03-01T02:59:01.957Z,99491.89
2019-03-01T03:01:35.902Z,99478.55
2019-03-01T03:04:09.886Z,99478.55
2019-03-01T03:06:45.510Z,99479.76
2019-03-01T03:09:19.825Z,99483.22
2019-03-01T03:11:53.812Z,99473.93
2019-03-01T03:14:27.776Z,99473.75
2019-03-01T03:17:01.967Z,99469.28
2019-03-01T03:19:35.966Z,99465.55
2019-03-01T03:22:09.828Z,99459.17
2019-03-01T03:24:43.884Z,99459.87
2019-03-01T03:27:18.890Z,99457.32
2019-03-01T03:29:52.869Z,99455.47
2019-03-01T03:32:30.208Z,99456.17
2019-03-01T03:35:04.262Z,99450.61
2019-03-01T03:37:40.192Z,99456.75
2019-03-01T03:40:17.860Z,99445.64
2019-03-01T03:42:53.397Z,99449.25
2019-03-01T03:45:29.382Z,99434.14
2019-03-01T03:48:05.098Z,99435.60
2019-03-01T03:50:40.683Z,99435.00
2019-03-01T03:53:14.347Z,99432.86
2019-03-01T03:55:48.911Z,99428.05
2019-03-01T03:58:22.748Z,99423.09
2019-03-01T04:00:56.534Z,99418.21
2019-03-01T04:03:30.380Z,99422.37
2019-03-01T04:06:05.385Z,99416.14
2019-03-01T04:08:39.336Z,99411.48
2019-03-01T04:11:13.065Z,99411.16
2019-03-01T04:13:46.727Z,99416.47
2019-03-01T04:16:20.394Z,99408.20
2019-03-01T04:18:53.842Z,99415.48
2019-03-01T04:21:27.550Z,99407.48
2019-03-01T04:24:01.333Z,99402.31
2019-03-01T04:26:34.749Z,99403.66
2019-03-01T04:29:08.633Z,99394.90
2019-03-01T04:31:42.288Z,99394.69
2019-03-01T04:34:16.023Z,99388.95
2019-03-01T04:36:49.726Z,99380.03
2019-03-01T04:39:23.168Z,99379.64
2019-03-01T04:41:56.737Z,99375.23
2019-03-01T04:44:30.254Z,99371.50
2019-03-01T04:47:04.183Z,99371.98
2019-03-01T04:49:38.074Z,99369.80
2019-03-01T04:52:34.594Z,99368.27
2019-03-01T04:55:11.835Z,99372.48
2019-03-01T04:57:45.348Z,99362.70
2019-03-01T05:00:22.026Z,99367.14
2019-03-01T05:02:58.545Z,99368.11
2019-03-01T05:05:32.359Z,99364.17
2019-03-01T05:08:05.896Z,99364.61
2019-03-01T05:10:39.474Z,99365.77
2019-03-01T05:13:12.964Z,99358.83
2019-03-01T05:15:46.524Z,99362.48
2019-03-01T05:18:20.021Z,99357.34
2019-03-01T05:20:54.456Z,99360.79
2019-03-01T05:23:27.995Z,99354.52
2019-03-01T05:26:01.427Z,99359.33
2019-03-01T05:28:36.121Z,99355.44
2019-03-01T05:31:09.534Z,99352.16
2019-03-01T05:33:42.883Z,99349.69
2019-03-01T05:36:16.274Z,99347.89
2019-03-01T05:38:49.814Z,99351.59
2019-03-01T05:41:26.023Z,99354.27
2019-03-01T05:43:59.373Z,99351.23
2019-03-01T05:46:32.889Z,99363.09
2019-03-01T05:49:06.291Z,99349.86
2019-03-01T05:51:41.337Z,99357.61
2019-03-01T05:54:14.613Z,99356.45
2019-03-01T05:56:49.389Z,99349.59
2019-03-01T05:59:24.435Z,99353.56
2019-03-01T06:02:09.173Z,99353.22
2019-03-01T06:04:46.729Z,99363.97
2019-03-01T06:07:35.367Z,99359.95
2019-03-01T06:10:17.523Z,99343.98
2019-03-01T06:13:20.026Z,99359.38
2019-03-01T06:16:13.827Z,99350.64
2019-03-01T06:19:16.205Z,99363.20
2019-03-01T06:22:27.893Z,99354.03
2019-03-01T06:25:20.313Z,99365.33
2019-03-01T06:28:11.438Z,99378.78
2019-03-01T06:31:09.076Z,99367.57
2019-03-01T06:34:09.537Z,99370.11
2019-03-01T06:36:59.840Z,99373.36
2019-03-01T06:39:56.741Z,99358.66
2019-03-01T06:42:33.404Z,99358.48
2019-03-01T06:45:56.405Z,99376.00
2019-03-01T06:48:29.718Z,99369.59
2019-03-01T06:51:02.965Z,99375.71
2019-03-01T06:53:37.275Z,99382.82
2019-03-01T06:56:10.773Z,99372.81
2019-03-01T06:58:44.202Z,99376.86
2019-03-01T07:01:20.256Z,99384.36
2019-03-01T07:03:53.498Z,99390.02
2019-03-01T07:06:26.921Z,99389.11
2019-03-01T07:09:00.189Z,99389.88
2019-03-01T07:11:36.729Z,99380.23
2019-03-01T07:14:10.128Z,99384.56
2019-03-01T07:17:13.813Z,99395.16
2019-03-01T07:19:48.678Z,99393.02
2019-03-01T07:22:22.104Z,99399.58
2019-03-01T07:24:58.911Z,99395.30
2019-03-01T07:27:32.462Z,99400.80
2019-03-01T07:30:06.900Z,99396.23
2019-03-01T07:32:40.337Z,99396.77
2019-03-01T07:35:14.118Z,99400.63
2019-03-01T07:37:48.459Z,99394.86
2019-03-01T07:40:22.060Z,99398.80
2019-03-01T07:43:00.152Z,99394.10
2019-03-01T07:45:34.463Z,99399.29
2019-03-01T07:48:08.102Z,99399.27
2019-03-01T07:50:41.567Z,99385.84
2019-03-01T07:53:15.229Z,99400.38
2019-03-01T07:55:48.505Z,99396.80
2019-03-01T07:58:25.256Z,99394.62
2019-03-01T08:00:56.517Z,99394.70
2019-03-01T08:03:29.766Z,99396.56
2019-03-01T08:06:03.168Z,99386.16
2019-03-01T08:08:38.812Z,99395.50
2019-03-01T08:11:11.250Z,99386.54
2019-03-01T08:13:45.059Z,99395.61
2019-03-01T08:16:20.083Z,99385.17
2019-03-01T08:18:53.151Z,99393.42
2019-03-01T08:21:26.502Z,99393.17
2019-03-01T08:23:59.856Z,99395.33
2019-03-01T08:26:34.939Z,99391.84
2019-03-01T08:29:09.637Z,99395.66
2019-03-01T08:31:44.589Z,99387.77
2019-03-01T08:34:18.659Z,99398.70
2019-03-01T08:36:52.005Z,99389.44
2019-03-01T08:39:26.672Z,99398.67
2019-03-01T08:42:01.405Z,99401.69
2019-03-01T08:44:35.913Z,99413.97
2019-03-01T08:47:10.781Z,99414.23
2019-03-01T08:49:47.104Z,99419.97
2019-03-01T08:52:20.663Z,99418.84
2019-03-01T08:54:58.829Z,99417.50
2019-03-01T08:57:30.204Z,99416.94
2019-03-01T09:00:03.560Z,99413.95
2019-03-01T09:02:38.328Z,99418.22
2019-03-01T09:05:14.814Z,99415.23
2019-03-01T09:07:49.746Z,99414.92
2019-03-01T09:10:24.633Z,99417.88
2019-03-01T09:12:59.200Z,99418.42
2019-03-01T09:15:36.776Z,99421.37
2019-03-01T09:18:14.583Z,99422.67
2019-03-01T09:20:49.645Z,99423.40
2019-03-01T09:23:27.388Z,99423.75
2019-03-01T09:26:01.024Z,99431.61
2019-03-01T09:28:38.520Z,99440.50
2019-03-01T09:31:09.753Z,99437.42
2019-03-01T09:33:43.890Z,99434.14
2019-03-01T09:36:21.352Z,99434.63
2019-03-01T09:38:58.307Z,99437.66
2019-03-01T09:41:36.654Z,99440.86
2019-03-01T09:44:09.128Z,99447.41
2019-03-01T09:46:43.970Z,99450.16
2019-03-01T09:49:21.419Z,99450.70
2019-03-01T09:51:54.182Z,99457.42
2019-03-01T09:54:28.315Z,99456.53
2019-03-01T09:57:02.590Z,99460.78
2019-03-01T09:59:36.283Z,99464.03
2019-03-01T10:02:12.304Z,99466.01
2019-03-01T10:04:46.114Z,99466.87
2019-03-01T10:07:21.006Z,99473.25
2019-03-01T10:09:58.234Z,99471.31
2019-03-01T10:12:33.113Z,99477.63
2019-03-01T10:15:09.115Z,99473.45
2019-03-01T10:17:44.103Z,99470.50
2019-03-01T10:20:19.292Z,99466.09
2019-03-01T10:22:56.596Z,99481.93
2019-03-01T10:25:32.660Z,99476.51
2019-03-01T10:28:11.289Z,99472.75
2019-03-01T10:30:46.488Z,99468.88
2019-03-01T10:33:23.963Z,99471.63
2019-03-01T10:36:03.216Z,99480.45
2019-03-01T10:38:38.344Z,99482.45
2019-03-01T10:41:14.702Z,99481.92
2019-03-01T10:43:49.146Z,99478.17
2019-03-01T10:46:23.612Z,99484.64
2019-03-01T10:48:58.272Z,99482.66
2019-03-01T10:51:35.837Z,99483.43
2019-03-01T10:54:10.285Z,99488.30
2019-03-01T10:56:44.437Z,99493.92
2019-03-01T10:59:18.761Z,99490.96
2019-03-01T11:01:54.869Z,99490.99
2019-03-01T11:04:29.433Z,99488.40
2019-03-01T11:07:04.616Z,99494.99
2019-03-01T11:09:42.314Z,99484.14
2019-03-01T11:12:18.245Z,99483.34
2019-03-01T11:14:53.362Z,99488.03
2019-03-01T11:17:27.841Z,99492.11
2019-03-01T11:20:02.231Z,99489.34
2019-03-01T11:22:36.616Z,99496.22
2019-03-01T11:25:21.607Z,99492.03
2019-03-01T11:27:57.356Z,99495.63
2019-03-01T11:30:35.461Z,99488.39
2019-03-01T11:33:14.665Z,99493.09
2019-03-01T11:35:48.670Z,99496.09
2019-03-01T11:38:22.792Z,99489.67
2019-03-01T11:40:56.668Z,99485.01
2019-03-01T11:43:31.770Z,99489.91
2019-03-01T11:46:05.603Z,99492.14
2019-03-01T11:48:44.168Z,99489.59
2019-03-01T11:51:27.848Z,99487.91
2019-03-01T11:53:59.298Z,99490.11
2019-03-01T11:56:34.577Z,99491.13
2019-03-01T11:59:09.768Z,99484.89
2019-03-01T12:01:46.993Z,99488.72
2019-03-01T12:04:21.733Z,99480.42
2019-03-01T12:06:57.572Z,99486.16
2019-03-01T12:09:32.612Z,99488.41
2019-03-01T12:12:07.311Z,99491.28
2019-03-01T12:14:41.015Z,99494.08
2019-03-01T12:17:16.420Z,99495.95
2019-03-01T12:19:50.102Z,99497.91
2019-03-01T12:22:24.053Z,99501.16
2019-03-01T12:24:57.474Z,99498.37
2019-03-01T12:27:32.744Z,99498.16
2019-03-01T12:30:11.508Z,99498.76
2019-03-01T12:32:46.395Z,99501.53
2019-03-01T12:35:21.151Z,99496.88
2019-03-01T12:37:55.430Z,99502.66
2019-03-01T12:40:30.889Z,99499.80
2019-03-01T12:43:05.354Z,99501.08
2019-03-01T12:45:39.658Z,99499.28
2019-03-01T12:48:14.236Z,99507.88
2019-03-01T12:50:50.371Z,99511.48
2019-03-01T12:53:25.390Z,99519.85
2019-03-01T12:56:00.247Z,99516.62
2019-03-01T12:58:34.732Z,99515.63
2019-03-01T13:01:09.250Z,99509.66
2019-03-01T13:03:44.641Z,99514.59
2019-03-01T13:06:18.872Z,99511.44
2019-03-01T13:08:54.829Z,99513.44
2019-03-01T13:11:29.672Z,99519.48
2019-03-01T13:14:36.768Z,99523.44
2019-03-01T13:16:50.487Z,99529.71
2019-03-01T13:19:26.102Z,99538.00
2019-03-01T13:22:00.105Z,99532.05
2019-03-01T13:24:35.127Z,99538.83
2019-03-01T13:27:10.825Z,99539.02
2019-03-01T13:29:45.672Z,99544.09
2019-03-01T13:32:20.036Z,99542.81
2019-03-01T13:34:55.358Z,99531.46
2019-03-01T13:37:29.942Z,99534.00
2019-03-01T13:40:04.615Z,99530.28
2019-03-01T13:42:39.087Z,99524.73
2019-03-01T13:45:15.994Z,99512.78
2019-03-01T13:47:50.967Z,99512.78
2019-03-01T13:50:25.287Z,99520.23
2019-03-01T13:53:01.935Z,99514.89
2019-03-01T13:55:36.711Z,99511.80
2019-03-01T13:58:12.407Z,99512.12
2019-03-01T14:00:48.756Z,99510.53
2019-03-01T14:03:27.481Z,99514.84
2019-03-01T14:06:02.144Z,99507.51
2019-03-01T14:08:37.492Z,99498.47
2019-03-01T14:11:15.150Z,99495.36
2019-03-01T14:13:51.135Z,99500.68
2019-03-01T14:16:25.468Z,99493.75
2019-03-01T14:18:59.889Z,99492.86
2019-03-01T14:21:34.727Z,99493.00
2019-03-01T14:24:12.763Z,99494.48
2019-03-01T14:26:50.587Z,99484.14
2019-03-01T14:29:24.469Z,99491.04
2019-03-01T14:31:58.326Z,99489.14
2019-03-01T14:34:33.505Z,99486.59
2019-03-01T14:37:15.107Z,99487.08
2019-03-01T14:39:50.090Z,99482.94
2019-03-01T14:42:25.461Z,99476.59
2019-03-01T14:45:02.697Z,99477.36
2019-03-01T14:47:37.730Z,99472.56
2019-03-01T14:50:14.992Z,99464.12
2019-03-01T14:52:56.886Z,99464.64
2019-03-01T14:55:32.453Z,99463.81
2019-03-01T14:58:26.052Z,99460.31
2019-03-01T15:01:17.747Z,99464.25
2019-03-01T15:03:54.711Z,99459.98
2019-03-01T15:06:28.438Z,99462.67
2019-03-01T15:09:03.877Z,99453.27
2019-03-01T15:11:41.204Z,99460.77
2019-03-01T15:14:14.654Z,99453.88
2019-03-01T15:16:48.280Z,99446.99
2019-03-01T15:19:24.104Z,99445.52
2019-03-01T15:21:58.194Z,99437.83
2019-03-01T15:24:33.323Z,99442.61
2019-03-01T15:27:06.966Z,99442.14
2019-03-01T15:29:40.642Z,99439.41
2019-03-01T15:32:15.172Z,99444.22
2019-03-01T15:34:51.908Z,99439.90
2019-03-01T15:37:31.023Z,99433.48
2019-03-01T15:40:08.135Z,99430.14
2019-03-01T15:42:43.673Z,99444.00
2019-03-01T15:45:18.801Z,99439.90
2019-03-01T15:47:53.958Z,99442.50
2019-03-01T15:50:29.827Z,99441.49
2019-03-01T15:53:03.941Z,99434.27
2019-03-01T15:55:40.644Z,99431.73
2019-03-01T15:58:15.339Z,99437.83
2019-03-01T16:00:53.450Z,99433.10
2019-03-01T16:03:27.439Z,99434.83
2019-03-01T16:06:02.003Z,99429.12
2019-03-01T16:08:36.924Z,99421.25
2019-03-01T16:11:12.643Z,99428.78
2019-03-01T16:13:49.052Z,99426.59
2019-03-01T16:16:24.598Z,99432.31
2019-03-01T16:18:59.767Z,99427.48
2019-03-01T16:21:36.509Z,99427.48
2019-03-01T16:24:09.265Z,99429.85
2019-03-01T16:26:43.061Z,99431.65
2019-03-01T16:29:17.181Z,99429.88
2019-03-01T16:31:50.845Z,99427.94
2019-03-01T16:34:25.058Z,99422.13
2019-03-01T16:36:58.679Z,99413.91
2019-03-01T16:39:33.732Z,99415.27
2019-03-01T16:42:14.531Z,99418.25
2019-03-01T16:44:47.786Z,99409.46
2019-03-01T16:47:23.269Z,99407.61
2019-03-01T16:49:58.915Z,99403.38
2019-03-01T16:52:33.111Z,99408.58
2019-03-01T16:55:08.253Z,99399.37
2019-03-01T16:57:44.435Z,99402.34
2019-03-01T17:00:24.983Z,99402.56
2019-03-01T17:03:10.098Z,99407.75
2019-03-01T17:05:44.294Z,99400.93
2019-03-01T17:08:18.154Z,99397.20
2019-03-01T17:10:53.887Z,99407.01
2019-03-01T17:13:28.086Z,99398.05
2019-03-01T17:16:01.618Z,99396.91
2019-03-01T17:18:36.417Z,99387.02
2019-03-01T17:21:12.532Z,99385.17
2019-03-01T17:23:45.938Z,99384.87
2019-03-01T17:26:19.629Z,99374.78
2019-03-01T17:28:53.665Z,99377.03
2019-03-01T17:31:27.889Z,99364.77
2019-03-01T17:34:02.111Z,99361.06
2019-03-01T17:36:35.527Z,99359.20
2019-03-01T17:39:09.817Z,99364.57
2019-03-01T17:41:45.590Z,99351.68
2019-03-01T17:44:18.304Z,99357.55
2019-03-01T17:46:53.348Z,99347.66
2019-03-01T17:49:29.722Z,99348.18
2019-03-01T17:52:01.424Z,99342.39
2019-03-01T17:54:36.901Z,99335.29
2019-03-01T17:57:10.930Z,99343.95
2019-03-01T17:59:48.311Z,99335.69
2019-03-01T18:02:22.760Z,99333.13
2019-03-01T18:04:56.571Z,99337.77
2019-03-01T18:07:30.605Z,99336.20
2019-03-01T18:10:04.130Z,99329.22
2019-03-01T18:12:37.694Z,99317.77
2019-03-01T18:15:17.576Z,99316.02
2019-03-01T18:17:52.441Z,99314.68
2019-03-01T18:20:26.471Z,99319.92
2019-03-01T18:23:02.366Z,99320.04
2019-03-01T18:25:35.297Z,99314.05
2019-03-01T18:28:09.508Z,99311.17
2019-03-01T18:30:52.056Z,99315.58
2019-03-01T18:33:27.358Z,99311.16
2019-03-01T18:36:07.963Z,99313.02
2019-03-01T18:38:42.681Z,99310.86
2019-03-01T18:41:18.401Z,99306.20
2019-03-01T18:43:53.699Z,99296.63
2019-03-01T18:46:28.390Z,99295.91
2019-03-01T18:49:02.691Z,99298.39
2019-03-01T18:51:42.292Z,99303.44
2019-03-01T18:54:17.243Z,99293.41
2019-03-01T18:56:51.106Z,99296.61
2019-03-01T18:59:31.820Z,99293.59
2019-03-01T19:02:02.852Z,99292.05
2019-03-01T19:04:39.524Z,99284.75
2019-03-01T19:07:14.061Z,99290.11
2019-03-01T19:09:52.247Z,99285.89
2019-03-01T19:12:26.228Z,99282.09
2019-03-01T19:15:00.451Z,99284.47
2019-03-01T19:17:40.510Z,99275.94
2019-03-01T19:20:32.388Z,99281.70
2019-03-01T19:23:06.714Z,99276.02
2019-03-01T19:25:40.113Z,99269.00
2019-03-01T19:28:13.335Z,99262.00
2019-03-01T19:30:49.054Z,99260.97
2019-03-01T19:33:22.454Z,99261.09
2019-03-01T19:35:56.975Z,99261.50
2019-03-01T19:38:31.025Z,99253.90
2019-03-01T19:41:04.346Z,99253.47
2019-03-01T19:43:37.710Z,99248.22
2019-03-01T19:46:12.610Z,99252.64
2019-03-01T19:48:46.893Z,99247.51
2019-03-01T19:51:20.204Z,99252.88
2019-03-01T19:53:53.832Z,99247.28
2019-03-01T19:56:27.140Z,99244.61
2019-03-01T19:59:02.157Z,99242.12
2019-03-01T20:01:35.452Z,99241.34
2019-03-01T20:04:09.393Z,99236.81
2019-03-01T20:06:43.491Z,99233.90
2019-03-01T20:09:16.961Z,99236.27
2019-03-01T20:11:50.321Z,99238.55
2019-03-01T20:14:23.635Z,99234.84
2019-03-01T20:16:59.005Z,99234.84
2019-03-01T20:19:35.236Z,99235.47
2019-03-01T20:22:10.474Z,99243.27
2019-03-01T20:24:43.885Z,99236.69
2019-03-01T20:27:17.267Z,99232.67
2019-03-01T20:29:52.494Z,99232.88
2019-03-01T20:32:25.181Z,99231.53
2019-03-01T20:34:59.700Z,99226.49
2019-03-01T20:37:33.037Z,99226.30
2019-03-01T20:40:07.457Z,99220.51
2019-03-01T20:42:40.807Z,99218.86
2019-03-01T20:45:29.882Z,99222.79
2019-03-01T20:48:04.014Z,99225.03
2019-03-01T20:50:37.496Z,99220.43
2019-03-01T20:53:13.319Z,99218.86
2019-03-01T20:55:45.553Z,99219.09
2019-03-01T20:58:22.104Z,99216.92
2019-03-01T21:03:58.175Z,99219.69
2019-03-01T21:06:31.603Z,99210.74
2019-03-01T21:09:06.935Z,99218.46
2019-03-01T21:11:41.699Z,99218.97
2019-03-01T21:14:15.102Z,99214.25
2019-03-01T21:16:50.108Z,99217.52
2019-03-01T21:19:23.391Z,99217.44
2019-03-01T21:21:56.730Z,99215.59
2019-03-01T21:24:31.943Z,99211.77
2019-03-01T21:27:04.623Z,99208.77
2019-03-01T21:29:37.831Z,99204.05
2019-03-01T21:32:11.779Z,99202.59
2019-03-01T21:34:45.149Z,99206.09
2019-03-01T21:37:18.438Z,99199.09
2019-03-01T21:39:51.673Z,99202.70
2019-03-01T21:42:24.926Z,99198.58
2019-03-01T21:44:58.200Z,99194.88
2019-03-01T21:47:31.483Z,99192.91
2019-03-01T21:50:07.653Z,99193.34
2019-03-01T21:52:40.102Z,99188.38
2019-03-01T21:55:16.487Z,99182.62
2019-03-01T21:57:50.439Z,99175.31
2019-03-01T22:00:34.738Z,99170.78
2019-03-01T22:03:07.816Z,99168.63
2019-03-01T22:05:41.147Z,99171.70
2019-03-01T22:08:14.327Z,99160.20
2019-03-01T22:10:47.686Z,99160.59
2019-03-01T22:13:20.877Z,99156.26
2019-03-01T22:15:54.195Z,99157.20
2019-03-01T22:18:28.932Z,99149.48
2019-03-01T22:21:02.188Z,99149.58
2019-03-01T22:23:35.444Z,99141.97
2019-03-01T22:26:09.597Z,99148.34
2019-03-01T22:28:43.156Z,99148.14
2019-03-01T22:31:16.406Z,99148.14
2019-03-01T22:33:52.594Z,99149.67
2019-03-01T22:36:25.985Z,99141.75
2019-03-01T22:39:00.639Z,99142.84
2019-03-01T22:41:35.635Z,99143.98
2019-03-01T22:44:08.347Z,99136.34
2019-03-01T22:46:43.085Z,99139.95
2019-03-01T22:49:16.362Z,99135.12
2019-03-01T22:51:52.626Z,99137.38
2019-03-01T22:54:25.417Z,99131.03
2019-03-01T22:56:58.963Z,99143.58
2019-03-01T22:59:32.272Z,99141.58
2019-03-01T23:02:08.105Z,99143.30
2019-03-01T23:04:48.843Z,99120.70
2019-03-01T23:07:26.440Z,99137.98
2019-03-01T23:10:03.549Z,99125.00
2019-03-01T23:12:40.549Z,99117.98
2019-03-01T23:15:14.434Z,99117.30
2019-03-01T23:17:48.314Z,99121.83
2019-03-01T23:20:26.134Z,99117.64
2019-03-01T23:22:57.171Z,99116.55
2019-03-01T23:25:30.478Z,99124.30
2019-03-01T23:28:04.027Z,99132.56
2019-03-01T23:30:43.056Z,99132.23
2019-03-01T23:33:14.205Z,99130.84
2019-03-01T23:35:53.044Z,99135.70
2019-03-01T23:38:24.742Z,99134.70
2019-03-01T23:40:58.118Z,99136.34
2019-03-01T23:43:31.777Z,99128.08
2019-03-01T23:46:05.248Z,99132.27
2019-03-01T23:48:38.726Z,99128.86
2019-03-01T23:51:22.692Z,99131.86
2019-03-01T23:53:56.057Z,99124.16
2019-03-01T23:56:30.542Z,99119.24
2019-03-01T23:59:05.166Z,99119.66
